Dexterville, Wisconsin
Current Conditions -  °F | °C
As of 8:54 AM on Monday 22 Dec 2014 (Local Time) from KMFI Reporting Station
Haze Haze  
Wind Chill: 25°   Ceiling: 700
Heat Index: 34°   Visibility: 3mi
Dew Point: 31°   Wind: 12mph
Humidity: 89%   Direction: 140°SE
Pressure: 29.8"   Gusts: NA
Location:  44.4101°N, 90.2968°W
Report Text: KMFI 221454Z AUTO 14010KT 3SM BR OVC007 01/M01 A2980 RMK AO2 SLP103 T00111006 58006
Loading
Personal Weather Stations






























Interactive Weather Map New forecast layout! Learn more

10-Day Weather Forecast

Advertisements
Track Severe Weather on mobile